createdAt,value
2022-09-04T00:00:10.632Z,9.30
2022-09-04T00:05:58.234Z,9.20
2022-09-04T00:22:30.398Z,11.40
2022-09-04T00:27:52.873Z,11.60
2022-09-04T00:33:12.609Z,11.30
2022-09-04T00:38:44.173Z,9.30
2022-09-04T00:44:36.891Z,10.90
2022-09-04T00:50:12.490Z,11.10
2022-09-04T00:55:38.252Z,11.10
2022-09-04T01:00:55.479Z,12.10
2022-09-04T01:06:30.843Z,13.00
2022-09-04T01:11:51.607Z,12.30
2022-09-04T01:17:14.503Z,12.70
2022-09-04T01:22:52.215Z,11.30
2022-09-04T01:28:09.754Z,11.70
2022-09-04T01:33:29.446Z,12.00
2022-09-04T01:38:47.985Z,11.70
2022-09-04T01:43:57.221Z,11.50
2022-09-04T01:49:11.416Z,12.70
2022-09-04T01:54:46.303Z,10.70
2022-09-04T02:00:11.313Z,8.90
2022-09-04T02:06:25.751Z,10.90
2022-09-04T02:12:07.153Z,10.00
2022-09-04T02:17:19.090Z,10.10
2022-09-04T02:22:35.965Z,8.80
2022-09-04T02:27:59.142Z,8.30
2022-09-04T02:33:16.419Z,9.30
2022-09-04T02:38:39.432Z,10.00
2022-09-04T02:44:02.288Z,9.80
2022-09-04T02:49:19.778Z,8.80
2022-09-04T02:54:45.659Z,8.70
2022-09-04T03:00:08.927Z,9.00
2022-09-04T03:05:22.220Z,9.90
2022-09-04T03:10:41.501Z,9.10
2022-09-04T03:15:57.845Z,9.80
2022-09-04T03:21:12.384Z,9.20
2022-09-04T03:26:29.621Z,9.00
2022-09-04T03:31:46.416Z,9.80
2022-09-04T03:37:09.398Z,9.40
2022-09-04T03:42:31.238Z,10.00
2022-09-04T03:47:50.669Z,9.40
2022-09-04T03:53:16.343Z,9.50
2022-09-04T03:58:39.459Z,9.30
2022-09-04T04:04:04.261Z,10.30
2022-09-04T04:09:47.112Z,8.60
2022-09-04T04:15:15.362Z,8.70
2022-09-04T04:20:39.141Z,8.70
2022-09-04T04:26:05.122Z,8.90
2022-09-04T04:31:23.567Z,9.70
2022-09-04T04:36:40.662Z,10.00
2022-09-04T04:42:18.371Z,8.40
2022-09-04T04:47:44.324Z,9.90
2022-09-04T04:53:04.238Z,8.90
2022-09-04T04:58:50.790Z,10.20
2022-09-04T05:04:15.489Z,9.40
2022-09-04T05:09:38.191Z,7.60
2022-09-04T05:14:58.552Z,9.60
2022-09-04T05:20:37.195Z,8.40
2022-09-04T05:25:56.903Z,7.40
2022-09-04T05:31:19.140Z,8.20
2022-09-04T05:36:40.884Z,7.70
2022-09-04T05:42:14.851Z,7.20
2022-09-04T05:47:35.869Z,8.40
2022-09-04T05:52:58.989Z,8.20
2022-09-04T05:58:43.029Z,7.40
2022-09-04T06:04:11.676Z,8.30
2022-09-04T06:09:48.658Z,7.50
2022-09-04T06:20:42.406Z,7.20
2022-09-04T06:26:23.128Z,8.10
2022-09-04T06:31:59.850Z,7.30
2022-09-04T06:37:29.731Z,7.10
2022-09-04T06:43:06.937Z,7.30
2022-09-04T06:48:29.823Z,7.20
2022-09-04T06:53:54.719Z,7.80
2022-09-04T06:59:28.939Z,7.30
2022-09-04T07:04:50.752Z,6.00
2022-09-04T07:10:10.429Z,6.40
2022-09-04T07:16:27.977Z,6.40
2022-09-04T07:22:13.706Z,6.90
2022-09-04T07:27:56.373Z,4.90
2022-09-04T07:33:14.883Z,6.00
2022-09-04T07:38:31.600Z,5.50
2022-09-04T07:43:50.305Z,6.10
2022-09-04T07:49:10.428Z,6.20
2022-09-04T07:55:03.699Z,6.50
2022-09-04T08:00:46.461Z,6.50
2022-09-04T08:05:58.878Z,6.10
2022-09-04T08:16:43.556Z,6.60
2022-09-04T08:21:53.569Z,6.80
2022-09-04T08:27:14.210Z,6.10
2022-09-04T08:32:38.324Z,5.90
2022-09-04T08:38:10.340Z,4.90
2022-09-04T08:43:33.816Z,5.90
2022-09-04T08:49:12.024Z,8.40
2022-09-04T08:54:51.102Z,8.20
2022-09-04T09:00:16.403Z,8.10
2022-09-04T09:06:00.566Z,7.30
2022-09-04T09:11:47.011Z,9.60
2022-09-04T09:17:18.840Z,8.70
2022-09-04T09:23:16.004Z,7.30
2022-09-04T09:29:16.844Z,7.10
2022-09-04T09:35:10.508Z,7.10
2022-09-04T09:40:54.448Z,8.10
2022-09-04T09:46:48.168Z,7.40
2022-09-04T09:52:35.703Z,7.10
2022-09-04T09:58:23.616Z,6.60
2022-09-04T10:04:25.372Z,7.20
2022-09-04T10:10:17.596Z,6.60
2022-09-04T10:22:10.645Z,7.40
2022-09-04T10:27:47.222Z,7.50
2022-09-04T10:33:28.094Z,6.90
2022-09-04T10:39:21.773Z,7.40
2022-09-04T10:44:56.798Z,7.40
2022-09-04T10:50:53.224Z,7.50
2022-09-04T10:56:30.816Z,7.50
2022-09-04T11:01:55.765Z,7.50
2022-09-04T11:14:28.636Z,5.80
2022-09-04T11:20:34.725Z,6.60
2022-09-04T11:26:30.902Z,6.90
2022-09-04T11:32:05.073Z,6.90
2022-09-04T11:37:57.954Z,11.20
2022-09-04T11:43:33.120Z,6.70
2022-09-04T11:49:34.860Z,6.10
2022-09-04T11:55:23.926Z,6.10
2022-09-04T12:01:00.944Z,6.00
2022-09-04T12:06:32.349Z,7.00
2022-09-04T12:12:14.553Z,6.90
2022-09-04T12:18:09.239Z,6.00
2022-09-04T12:23:56.096Z,6.10
2022-09-04T12:29:33.955Z,5.60
2022-09-04T12:35:28.540Z,5.40
2022-09-04T12:41:08.840Z,6.20
2022-09-04T12:46:50.883Z,6.00
2022-09-04T12:52:15.638Z,6.20
2022-09-04T12:58:01.164Z,6.10
2022-09-04T13:03:34.245Z,6.30
2022-09-04T13:09:06.638Z,5.70
2022-09-04T13:15:06.030Z,5.50
2022-09-04T13:20:27.467Z,5.70
2022-09-04T13:26:18.362Z,4.90
2022-09-04T13:31:48.919Z,5.60
2022-09-04T13:37:10.832Z,6.40
2022-09-04T13:42:52.373Z,5.50
2022-09-04T13:48:23.485Z,6.60
2022-09-04T13:54:07.866Z,5.20
2022-09-04T13:59:22.132Z,6.50
2022-09-04T14:04:36.133Z,6.00
2022-09-04T14:09:57.830Z,6.30
2022-09-04T14:15:40.489Z,6.50
2022-09-04T14:21:11.332Z,6.50
2022-09-04T14:26:34.591Z,5.50
2022-09-04T14:31:52.759Z,6.30
2022-09-04T14:37:14.027Z,6.80
2022-09-04T14:42:46.148Z,7.40
2022-09-04T14:47:57.881Z,7.00
2022-09-04T14:53:10.179Z,7.70
2022-09-04T14:58:27.368Z,8.00
2022-09-04T15:03:40.591Z,7.10
2022-09-04T15:08:59.105Z,7.50
2022-09-04T15:14:26.671Z,8.00
2022-09-04T15:19:51.714Z,7.60
2022-09-04T15:25:06.816Z,8.40
2022-09-04T15:30:25.381Z,7.70
2022-09-04T15:35:34.532Z,7.40
2022-09-04T15:41:15.523Z,7.20
2022-09-04T15:46:43.676Z,8.50
2022-09-04T15:52:16.266Z,8.80
2022-09-04T15:57:38.614Z,7.30
2022-09-04T16:02:59.827Z,7.10
2022-09-04T16:08:30.068Z,9.10
2022-09-04T16:19:27.801Z,7.30
2022-09-04T16:24:41.464Z,8.50
2022-09-04T16:29:51.647Z,10.80
2022-09-04T16:35:07.536Z,10.40
2022-09-04T16:40:28.724Z,8.50
2022-09-04T16:45:45.633Z,9.40
2022-09-04T16:56:07.706Z,8.90
2022-09-04T17:01:19.298Z,8.60
2022-09-04T17:06:33.680Z,8.80
2022-09-04T17:11:55.504Z,9.00
2022-09-04T17:17:31.566Z,9.70
2022-09-04T17:28:58.634Z,9.70
2022-09-04T17:40:41.302Z,10.30
2022-09-04T17:40:49.874Z,11.20
2022-09-04T17:45:36.491Z,11.00
2022-09-04T17:50:57.234Z,11.20
2022-09-04T17:56:11.072Z,9.10
2022-09-04T18:01:29.133Z,10.00
2022-09-04T18:06:45.579Z,9.80
2022-09-04T18:12:04.698Z,10.00
2022-09-04T18:17:18.021Z,11.40
2022-09-04T18:22:33.225Z,10.80
2022-09-04T18:28:11.927Z,10.90
2022-09-04T18:37:25.659Z,10.20
2022-09-04T18:39:09.144Z,11.40
2022-09-04T18:50:41.120Z,10.50
2022-09-04T18:50:43.190Z,11.70
2022-09-04T18:55:49.071Z,11.80
2022-09-04T19:01:04.204Z,9.00
2022-09-04T19:06:17.196Z,10.40
2022-09-04T19:11:34.631Z,10.50
2022-09-04T19:16:50.409Z,11.50
2022-09-04T19:22:07.560Z,13.30
2022-09-04T19:27:28.573Z,11.20
2022-09-04T19:32:50.246Z,12.30
2022-09-04T19:41:07.828Z,12.40
2022-09-04T19:46:09.036Z,12.50
2022-09-04T19:50:32.731Z,11.60
2022-09-04T19:55:24.804Z,11.80
2022-09-04T20:00:42.559Z,12.40
2022-09-04T20:06:21.153Z,11.40
2022-09-04T20:11:39.708Z,11.50
2022-09-04T20:17:16.963Z,12.40
2022-09-04T20:22:37.825Z,11.70
2022-09-04T20:27:49.169Z,11.40
2022-09-04T20:33:08.959Z,10.00
2022-09-04T20:38:38.834Z,9.90
2022-09-04T20:44:04.453Z,9.60
2022-09-04T20:52:57.783Z,9.30
2022-09-04T20:55:32.696Z,9.00
2022-09-04T21:03:21.626Z,8.50
2022-09-04T21:06:58.361Z,8.70
2022-09-04T21:12:29.059Z,9.90
2022-09-04T21:18:13.514Z,9.20
2022-09-04T21:24:25.657Z,8.90
2022-09-04T21:30:04.434Z,8.70
2022-09-04T21:35:22.731Z,9.30
2022-09-04T21:40:59.753Z,8.80
2022-09-04T21:46:43.739Z,9.80
2022-09-04T21:52:18.388Z,9.20
2022-09-04T22:02:29.179Z,9.50
2022-09-04T22:03:43.070Z,9.50
2022-09-04T22:13:30.678Z,9.40
2022-09-04T22:14:42.986Z,10.40
2022-09-04T22:20:24.882Z,10.40
2022-09-04T22:26:23.565Z,9.40
2022-09-04T22:32:27.018Z,10.10
2022-09-04T22:38:03.503Z,10.10
2022-09-04T22:43:25.779Z,8.50
2022-09-04T22:49:18.950Z,9.60
2022-09-04T22:54:59.218Z,9.70
2022-09-04T23:00:34.573Z,9.60
2022-09-04T23:09:07.299Z,8.90
2022-09-04T23:14:00.921Z,8.10
2022-09-04T23:20:50.205Z,9.00
2022-09-04T23:26:50.901Z,9.50
2022-09-04T23:30:24.418Z,7.80
2022-09-04T23:35:41.963Z,7.80
2022-09-04T23:41:27.740Z,7.70
2022-09-04T23:47:46.510Z,8.80
2022-09-04T23:59:20.354Z,7.50
